DAL785 KATL-KSFO
Flight info
| Callsign | DAL785 |
|---|---|
| Flight time | 4h 41m |
| Altitude | 30000 |
| Route | CUTTN2 HANKO MEMFS PER PUB HBU BDROC ILC KITTN Q164 KATTS INYOE DYAMD5 |
| Aircraft | A21N/M-VGDW/C |
Departure
| Time | 2026-05-05 12:47 |
|---|---|
| Airport | Hartsfield Jackson Atlanta International Airport (KATL) |
Arrival
| Time | 2026-05-05 17:28 |
|---|---|
| Airport | San Francisco International Airport (KSFO) |
| Time | Latitude | Longitude | Altitude | Speed | Heading |
|---|---|---|---|---|---|
| 2026-05-05 12:26 | 33.63764 | -84.43870 | 1012 ft | 0 kts | 284° |
| 2026-05-05 12:32 | 33.63758 | -84.43842 | 1012 ft | 4 kts | 281° |
| 2026-05-05 12:32 | 33.63750 | -84.43811 | 1012 ft | 4 kts | 301° |
| 2026-05-05 12:32 | 33.63733 | -84.43790 | 1012 ft | 4 kts | 340° |
| 2026-05-05 12:32 | 33.63719 | -84.43787 | 1012 ft | 1 kts | 359° |
| 2026-05-05 12:33 | 33.63718 | -84.43787 | 1012 ft | 0 kts | 359° |
| 2026-05-05 12:34 | 33.63717 | -84.43787 | 1012 ft | 0 kts | 359° |
| 2026-05-05 12:36 | 33.63718 | -84.43787 | 1012 ft | 0 kts | 359° |
| 2026-05-05 12:36 | 33.63738 | -84.43785 | 1012 ft | 6 kts | 5° |
| 2026-05-05 12:36 | 33.63781 | -84.43743 | 1012 ft | 11 kts | 24° |
| 2026-05-05 12:36 | 33.63858 | -84.43729 | 1012 ft | 12 kts | 358° |
| 2026-05-05 12:37 | 33.63944 | -84.43726 | 1012 ft | 13 kts | 2° |
| 2026-05-05 12:37 | 33.64035 | -84.43723 | 1012 ft | 13 kts | 1° |
| 2026-05-05 12:37 | 33.64131 | -84.43722 | 1012 ft | 14 kts | 359° |
| 2026-05-05 12:37 | 33.64231 | -84.43721 | 1012 ft | 15 kts | 0° |
| 2026-05-05 12:38 | 33.64317 | -84.43721 | 1012 ft | 2 kts | 0° |
| 2026-05-05 12:38 | 33.64335 | -84.43721 | 1012 ft | 3 kts | 0° |
| 2026-05-05 12:38 | 33.64358 | -84.43721 | 1012 ft | 4 kts | 359° |
| 2026-05-05 12:38 | 33.64395 | -84.43721 | 1012 ft | 7 kts | 0° |
| 2026-05-05 12:39 | 33.64440 | -84.43689 | 1012 ft | 10 kts | 56° |
| 2026-05-05 12:39 | 33.64459 | -84.43595 | 1012 ft | 14 kts | 87° |
| 2026-05-05 12:39 | 33.64459 | -84.43471 | 1012 ft | 16 kts | 90° |
| 2026-05-05 12:39 | 33.64459 | -84.43327 | 1012 ft | 18 kts | 90° |
| 2026-05-05 12:40 | 33.64458 | -84.43165 | 1012 ft | 20 kts | 89° |
| 2026-05-05 12:40 | 33.64458 | -84.42990 | 1012 ft | 22 kts | 90° |
| 2026-05-05 12:40 | 33.64459 | -84.42802 | 1012 ft | 23 kts | 83° |
| 2026-05-05 12:40 | 33.64474 | -84.42612 | 1012 ft | 24 kts | 100° |
| 2026-05-05 12:41 | 33.64463 | -84.42410 | 1011 ft | 25 kts | 91° |
| 2026-05-05 12:41 | 33.64500 | -84.42214 | 1011 ft | 25 kts | 58° |
| 2026-05-05 12:41 | 33.64555 | -84.42030 | 1011 ft | 24 kts | 91° |
| 2026-05-05 12:41 | 33.64542 | -84.41831 | 1012 ft | 24 kts | 86° |
| 2026-05-05 12:42 | 33.64545 | -84.41628 | 1012 ft | 25 kts | 90° |
| 2026-05-05 12:42 | 33.64542 | -84.41415 | 1012 ft | 26 kts | 89° |
| 2026-05-05 12:42 | 33.64543 | -84.41198 | 1012 ft | 27 kts | 90° |
| 2026-05-05 12:42 | 33.64540 | -84.41026 | 1012 ft | 6 kts | 89° |
| 2026-05-05 12:43 | 33.64544 | -84.40975 | 1012 ft | 7 kts | 86° |
| 2026-05-05 12:43 | 33.64543 | -84.40913 | 1012 ft | 8 kts | 90° |
| 2026-05-05 12:43 | 33.64547 | -84.40837 | 1011 ft | 10 kts | 64° |
| 2026-05-05 12:43 | 33.64567 | -84.40758 | 1011 ft | 11 kts | 85° |
| 2026-05-05 12:44 | 33.64572 | -84.40668 | 1011 ft | 11 kts | 91° |
| 2026-05-05 12:44 | 33.64570 | -84.40620 | 1011 ft | 2 kts | 93° |
| 2026-05-05 12:44 | 33.64572 | -84.40599 | 1011 ft | 3 kts | 74° |
| 2026-05-05 12:44 | 33.64577 | -84.40586 | 1011 ft | 0 kts | 52° |
| 2026-05-05 12:45 | 33.64582 | -84.40581 | 1011 ft | 3 kts | 34° |
| 2026-05-05 12:46 | 33.64613 | -84.40571 | 1010 ft | 7 kts | 3° |
| 2026-05-05 12:46 | 33.64666 | -84.40591 | 1009 ft | 10 kts | 316° |
| 2026-05-05 12:46 | 33.64682 | -84.40672 | 1009 ft | 11 kts | 277° |
| 2026-05-05 12:46 | 33.64674 | -84.40861 | 1011 ft | 48 kts | 271° |
| 2026-05-05 12:47 | 33.64680 | -84.41610 | 1013 ft | 130 kts | 270° |
| 2026-05-05 12:47 | 33.64682 | -84.42980 | 1080 ft | 193 kts | 270° |
| 2026-05-05 12:47 | 33.64708 | -84.44620 | 2068 ft | 200 kts | 272° |
| 2026-05-05 12:47 | 33.64784 | -84.46371 | 3063 ft | 219 kts | 275° |
| 2026-05-05 12:48 | 33.64981 | -84.48118 | 3989 ft | 206 kts | 282° |
| 2026-05-05 12:48 | 33.65253 | -84.49735 | 4921 ft | 194 kts | 283° |
| 2026-05-05 12:48 | 33.65514 | -84.51304 | 5678 ft | 190 kts | 281° |
| 2026-05-05 12:48 | 33.65793 | -84.52962 | 5852 ft | 214 kts | 281° |
| 2026-05-05 12:49 | 33.66141 | -84.54798 | 6047 ft | 236 kts | 281° |
| 2026-05-05 12:49 | 33.66573 | -84.56803 | 6292 ft | 257 kts | 282° |
| 2026-05-05 12:49 | 33.67035 | -84.58947 | 6685 ft | 272 kts | 281° |
| 2026-05-05 12:49 | 33.67457 | -84.61192 | 7332 ft | 276 kts | 280° |
| 2026-05-05 12:50 | 33.67856 | -84.63454 | 8023 ft | 279 kts | 279° |
| 2026-05-05 12:50 | 33.68246 | -84.65719 | 8707 ft | 281 kts | 279° |
| 2026-05-05 12:50 | 33.68640 | -84.68039 | 9381 ft | 285 kts | 279° |
| 2026-05-05 12:50 | 33.69036 | -84.70374 | 10037 ft | 287 kts | 279° |
| 2026-05-05 12:51 | 33.69443 | -84.72786 | 10415 ft | 302 kts | 279° |
| 2026-05-05 12:51 | 33.69875 | -84.75323 | 10672 ft | 319 kts | 281° |
| 2026-05-05 12:51 | 33.70500 | -84.77968 | 10910 ft | 337 kts | 285° |
| 2026-05-05 12:51 | 33.71242 | -84.80714 | 11134 ft | 354 kts | 286° |
| 2026-05-05 12:52 | 33.72021 | -84.83560 | 11349 ft | 370 kts | 286° |
| 2026-05-05 12:52 | 33.72840 | -84.86572 | 11570 ft | 385 kts | 286° |
| 2026-05-05 12:52 | 33.73675 | -84.89659 | 11832 ft | 396 kts | 286° |
| 2026-05-05 12:52 | 33.74530 | -84.92826 | 12290 ft | 399 kts | 286° |
| 2026-05-05 12:53 | 33.75391 | -84.96021 | 12814 ft | 401 kts | 286° |
| 2026-05-05 12:53 | 33.76236 | -84.99175 | 13346 ft | 402 kts | 286° |
| 2026-05-05 12:53 | 33.77099 | -85.02396 | 13878 ft | 404 kts | 287° |
| 2026-05-05 12:53 | 33.77965 | -85.05621 | 14373 ft | 406 kts | 287° |
| 2026-05-05 12:54 | 33.79698 | -85.12121 | 15488 ft | 409 kts | 287° |
| 2026-05-05 12:54 | 33.80558 | -85.15360 | 16024 ft | 412 kts | 287° |
| 2026-05-05 12:54 | 33.81416 | -85.18662 | 16542 ft | 413 kts | 285° |
| 2026-05-05 12:55 | 33.81947 | -85.22065 | 17046 ft | 414 kts | 275° |
| 2026-05-05 12:55 | 33.82143 | -85.25542 | 17524 ft | 416 kts | 273° |
| 2026-05-05 12:55 | 33.82283 | -85.28984 | 17979 ft | 418 kts | 273° |
| 2026-05-05 12:55 | 33.82422 | -85.32489 | 18440 ft | 419 kts | 273° |
| 2026-05-05 12:56 | 33.82567 | -85.36003 | 18869 ft | 421 kts | 274° |
| 2026-05-05 12:56 | 33.82717 | -85.39534 | 19290 ft | 422 kts | 274° |
| 2026-05-05 12:56 | 33.82869 | -85.43022 | 19701 ft | 425 kts | 274° |
| 2026-05-05 12:56 | 33.83026 | -85.46601 | 20129 ft | 426 kts | 274° |
| 2026-05-05 12:57 | 33.83181 | -85.50139 | 20531 ft | 427 kts | 274° |
| 2026-05-05 12:57 | 33.83336 | -85.53731 | 20947 ft | 429 kts | 274° |
| 2026-05-05 12:57 | 33.83491 | -85.57328 | 21425 ft | 431 kts | 274° |
| 2026-05-05 12:57 | 33.83645 | -85.60907 | 21880 ft | 433 kts | 274° |
| 2026-05-05 12:58 | 33.83935 | -85.64517 | 22293 ft | 433 kts | 281° |
| 2026-05-05 12:58 | 33.84711 | -85.68022 | 22719 ft | 433 kts | 289° |
| 2026-05-05 12:58 | 33.85715 | -85.71458 | 23092 ft | 435 kts | 290° |
| 2026-05-05 12:58 | 33.86745 | -85.74906 | 23436 ft | 437 kts | 290° |
| 2026-05-05 12:59 | 33.87755 | -85.78312 | 23850 ft | 436 kts | 289° |
| 2026-05-05 12:59 | 33.88765 | -85.81753 | 24331 ft | 434 kts | 289° |
| 2026-05-05 12:59 | 33.89764 | -85.85178 | 24798 ft | 431 kts | 289° |
| 2026-05-05 13:00 | 33.91717 | -85.91919 | 25736 ft | 425 kts | 290° |
| 2026-05-05 13:00 | 33.92694 | -85.95286 | 26206 ft | 422 kts | 290° |
| 2026-05-05 13:01 | 33.95555 | -86.05154 | 27546 ft | 413 kts | 290° |
| 2026-05-05 13:01 | 33.96501 | -86.08418 | 27989 ft | 410 kts | 290° |
| 2026-05-05 13:01 | 33.97436 | -86.11654 | 28388 ft | 407 kts | 290° |
| 2026-05-05 13:01 | 33.98367 | -86.14884 | 28782 ft | 405 kts | 290° |
| 2026-05-05 13:02 | 33.99276 | -86.18047 | 29167 ft | 402 kts | 290° |
| 2026-05-05 13:02 | 34.00188 | -86.21225 | 29545 ft | 400 kts | 290° |
| 2026-05-05 13:02 | 34.01095 | -86.24385 | 29890 ft | 397 kts | 290° |
| 2026-05-05 13:02 | 34.01692 | -86.26474 | 30021 ft | 396 kts | 290° |
| 2026-05-05 13:03 | 34.03478 | -86.32723 | 30077 ft | 392 kts | 290° |
| 2026-05-05 13:03 | 34.05256 | -86.38949 | 30072 ft | 392 kts | 290° |
| 2026-05-05 13:04 | 34.07036 | -86.45159 | 30069 ft | 393 kts | 290° |
| 2026-05-05 13:04 | 34.08804 | -86.51362 | 30060 ft | 393 kts | 290° |
| 2026-05-05 13:05 | 34.10578 | -86.57600 | 30030 ft | 393 kts | 290° |
| 2026-05-05 13:05 | 34.12351 | -86.63862 | 30045 ft | 393 kts | 290° |
| 2026-05-05 13:06 | 34.14109 | -86.70075 | 30049 ft | 392 kts | 290° |
| 2026-05-05 13:06 | 34.15872 | -86.76326 | 30070 ft | 393 kts | 290° |
| 2026-05-05 13:07 | 34.17633 | -86.82576 | 30046 ft | 393 kts | 290° |
| 2026-05-05 13:07 | 34.19387 | -86.88820 | 30038 ft | 394 kts | 290° |
| 2026-05-05 13:08 | 34.21144 | -86.95095 | 30039 ft | 393 kts | 290° |
| 2026-05-05 13:08 | 34.22896 | -87.01345 | 30040 ft | 393 kts | 290° |
| 2026-05-05 13:09 | 34.24639 | -87.07590 | 30039 ft | 393 kts | 291° |
| 2026-05-05 13:09 | 34.26372 | -87.13818 | 30038 ft | 393 kts | 291° |
| 2026-05-05 13:10 | 34.28116 | -87.20086 | 30035 ft | 392 kts | 291° |
| 2026-05-05 13:10 | 34.29841 | -87.26312 | 30033 ft | 392 kts | 291° |
| 2026-05-05 13:11 | 34.31572 | -87.32594 | 30027 ft | 392 kts | 290° |
| 2026-05-05 13:11 | 34.33288 | -87.38827 | 30020 ft | 392 kts | 291° |
| 2026-05-05 13:12 | 34.35019 | -87.45106 | 30014 ft | 392 kts | 291° |
| 2026-05-05 13:12 | 34.36735 | -87.51327 | 30035 ft | 390 kts | 291° |
| 2026-05-05 13:13 | 34.38456 | -87.57597 | 30041 ft | 391 kts | 291° |
| 2026-05-05 13:13 | 34.40156 | -87.63818 | 30037 ft | 392 kts | 291° |
| 2026-05-05 13:14 | 34.41873 | -87.70096 | 30033 ft | 392 kts | 291° |
| 2026-05-05 13:14 | 34.43567 | -87.76339 | 30031 ft | 391 kts | 291° |
| 2026-05-05 13:15 | 34.45276 | -87.82626 | 30027 ft | 391 kts | 291° |
| 2026-05-05 13:15 | 34.46965 | -87.88855 | 30012 ft | 391 kts | 291° |
| 2026-05-05 13:16 | 34.48665 | -87.95145 | 30019 ft | 391 kts | 291° |
| 2026-05-05 13:16 | 34.50350 | -88.01395 | 30002 ft | 391 kts | 290° |
| 2026-05-05 13:17 | 34.52037 | -88.07666 | 30000 ft | 390 kts | 290° |
| 2026-05-05 13:17 | 34.53630 | -88.13626 | 29988 ft | 390 kts | 291° |
| 2026-05-05 13:18 | 34.55306 | -88.19858 | 29987 ft | 390 kts | 290° |
| 2026-05-05 13:18 | 34.56981 | -88.26098 | 29988 ft | 390 kts | 290° |
| 2026-05-05 13:19 | 34.58655 | -88.32377 | 29989 ft | 391 kts | 290° |
| 2026-05-05 13:19 | 34.60331 | -88.38669 | 29989 ft | 391 kts | 290° |
| 2026-05-05 13:20 | 34.61988 | -88.44921 | 29991 ft | 391 kts | 290° |
| 2026-05-05 13:20 | 34.63658 | -88.51218 | 29989 ft | 390 kts | 290° |
| 2026-05-05 13:21 | 34.65307 | -88.57464 | 29991 ft | 390 kts | 289° |
| 2026-05-05 13:21 | 34.66955 | -88.63770 | 29985 ft | 390 kts | 289° |
| 2026-05-05 13:22 | 34.68612 | -88.70049 | 29980 ft | 390 kts | 289° |
| 2026-05-05 13:22 | 34.70263 | -88.76320 | 29979 ft | 391 kts | 289° |
| 2026-05-05 13:23 | 34.71899 | -88.82598 | 29972 ft | 391 kts | 289° |
| 2026-05-05 13:23 | 34.73546 | -88.88916 | 29969 ft | 391 kts | 289° |
| 2026-05-05 13:24 | 34.75183 | -88.95189 | 29969 ft | 391 kts | 289° |
| 2026-05-05 13:24 | 34.76829 | -89.01520 | 29970 ft | 390 kts | 289° |
| 2026-05-05 13:25 | 34.78427 | -89.07664 | 29967 ft | 389 kts | 289° |
| 2026-05-05 13:25 | 34.80058 | -89.13956 | 29963 ft | 389 kts | 289° |
| 2026-05-05 13:26 | 34.81689 | -89.20264 | 29954 ft | 389 kts | 289° |
| 2026-05-05 13:26 | 34.83302 | -89.26529 | 29948 ft | 389 kts | 288° |
| 2026-05-05 13:27 | 34.84908 | -89.32794 | 29952 ft | 389 kts | 288° |
| 2026-05-05 13:27 | 34.86525 | -89.39119 | 29957 ft | 389 kts | 288° |
| 2026-05-05 13:28 | 34.88125 | -89.45377 | 29948 ft | 389 kts | 288° |
| 2026-05-05 13:28 | 34.89736 | -89.51674 | 29946 ft | 389 kts | 288° |
| 2026-05-05 13:29 | 34.91332 | -89.57955 | 29942 ft | 389 kts | 288° |
| 2026-05-05 13:29 | 34.92934 | -89.64263 | 29936 ft | 389 kts | 288° |
| 2026-05-05 13:30 | 34.94534 | -89.70574 | 29931 ft | 389 kts | 288° |
| 2026-05-05 13:30 | 34.96112 | -89.76846 | 29931 ft | 389 kts | 288° |
| 2026-05-05 13:31 | 34.97707 | -89.83165 | 29932 ft | 389 kts | 288° |
| 2026-05-05 13:31 | 34.99287 | -89.89446 | 29927 ft | 389 kts | 288° |
| 2026-05-05 13:32 | 35.00872 | -89.95767 | 29918 ft | 388 kts | 288° |
| 2026-05-05 13:32 | 35.02536 | -90.02030 | 29910 ft | 388 kts | 289° |
| 2026-05-05 13:33 | 35.04256 | -90.08259 | 29909 ft | 389 kts | 288° |
| 2026-05-05 13:33 | 35.05980 | -90.14523 | 29911 ft | 389 kts | 288° |
| 2026-05-05 13:34 | 35.07696 | -90.20768 | 29904 ft | 390 kts | 288° |
| 2026-05-05 13:34 | 35.09410 | -90.27028 | 29902 ft | 390 kts | 288° |
| 2026-05-05 13:35 | 35.11121 | -90.33320 | 29901 ft | 390 kts | 288° |
| 2026-05-05 13:35 | 35.12827 | -90.39580 | 29899 ft | 390 kts | 288° |
| 2026-05-05 13:36 | 35.14547 | -90.45870 | 29892 ft | 390 kts | 288° |
| 2026-05-05 13:36 | 35.16229 | -90.52043 | 29888 ft | 391 kts | 288° |
| 2026-05-05 13:37 | 35.17943 | -90.58376 | 29885 ft | 392 kts | 288° |
| 2026-05-05 13:37 | 35.19646 | -90.64684 | 29882 ft | 392 kts | 288° |
| 2026-05-05 13:38 | 35.21363 | -90.71027 | 29874 ft | 392 kts | 288° |
| 2026-05-05 13:38 | 35.23065 | -90.77367 | 29874 ft | 393 kts | 288° |
| 2026-05-05 13:39 | 35.24754 | -90.83697 | 29870 ft | 393 kts | 288° |
| 2026-05-05 13:39 | 35.26448 | -90.90058 | 29869 ft | 393 kts | 288° |
| 2026-05-05 13:40 | 35.28149 | -90.96430 | 29869 ft | 394 kts | 288° |
| 2026-05-05 13:40 | 35.29838 | -91.02772 | 29870 ft | 394 kts | 287° |
| 2026-05-05 13:41 | 35.31536 | -91.09131 | 29871 ft | 394 kts | 287° |
| 2026-05-05 13:41 | 35.33152 | -91.15225 | 29867 ft | 395 kts | 287° |
| 2026-05-05 13:42 | 35.34840 | -91.21647 | 29867 ft | 395 kts | 287° |
| 2026-05-05 13:42 | 35.36530 | -91.28020 | 29869 ft | 396 kts | 287° |
| 2026-05-05 13:43 | 35.38233 | -91.34458 | 29860 ft | 396 kts | 287° |
| 2026-05-05 13:43 | 35.39920 | -91.40853 | 29861 ft | 397 kts | 287° |
| 2026-05-05 13:44 | 35.41614 | -91.47312 | 29860 ft | 397 kts | 287° |
| 2026-05-05 13:44 | 35.43296 | -91.53742 | 29863 ft | 398 kts | 287° |
| 2026-05-05 13:45 | 35.44986 | -91.60227 | 29861 ft | 398 kts | 287° |
| 2026-05-05 13:45 | 35.46677 | -91.66728 | 29859 ft | 399 kts | 287° |
| 2026-05-05 13:46 | 35.48355 | -91.73175 | 29859 ft | 399 kts | 287° |
| 2026-05-05 13:46 | 35.50038 | -91.79694 | 29851 ft | 399 kts | 286° |
| 2026-05-05 13:47 | 35.51713 | -91.86202 | 29852 ft | 399 kts | 286° |
| 2026-05-05 13:47 | 35.53385 | -91.92691 | 29846 ft | 400 kts | 286° |
| 2026-05-05 13:48 | 35.55062 | -91.99225 | 29851 ft | 401 kts | 286° |
| 2026-05-05 13:48 | 35.56727 | -92.05712 | 29846 ft | 401 kts | 286° |
| 2026-05-05 13:49 | 35.58396 | -92.12259 | 29846 ft | 401 kts | 286° |
| 2026-05-05 13:49 | 35.60070 | -92.18812 | 29843 ft | 401 kts | 286° |
| 2026-05-05 13:50 | 35.61733 | -92.25332 | 29834 ft | 401 kts | 286° |
| 2026-05-05 13:50 | 35.63387 | -92.31860 | 29828 ft | 401 kts | 286° |
| 2026-05-05 13:51 | 35.65039 | -92.38395 | 29835 ft | 401 kts | 286° |
| 2026-05-05 13:51 | 35.66415 | -92.43843 | 29830 ft | 401 kts | 286° |
| 2026-05-05 13:52 | 35.68067 | -92.50406 | 29827 ft | 400 kts | 286° |
| 2026-05-05 13:52 | 35.69712 | -92.56963 | 29829 ft | 400 kts | 286° |
| 2026-05-05 13:53 | 35.71336 | -92.63480 | 29823 ft | 400 kts | 286° |
| 2026-05-05 13:53 | 35.72977 | -92.70028 | 29829 ft | 400 kts | 286° |
| 2026-05-05 13:54 | 35.74606 | -92.76559 | 29817 ft | 399 kts | 286° |
| 2026-05-05 13:54 | 35.76227 | -92.83072 | 29823 ft | 399 kts | 286° |
| 2026-05-05 13:55 | 35.77854 | -92.89627 | 29818 ft | 399 kts | 286° |
| 2026-05-05 13:55 | 35.79471 | -92.96165 | 29817 ft | 399 kts | 286° |
| 2026-05-05 13:56 | 35.81089 | -93.02709 | 29813 ft | 399 kts | 286° |
| 2026-05-05 13:56 | 35.82685 | -93.09215 | 29815 ft | 399 kts | 286° |
| 2026-05-05 13:57 | 35.84291 | -93.15757 | 29809 ft | 398 kts | 286° |
| 2026-05-05 13:57 | 35.85885 | -93.22275 | 29806 ft | 398 kts | 286° |
| 2026-05-05 13:58 | 35.87476 | -93.28793 | 29810 ft | 397 kts | 286° |
| 2026-05-05 13:58 | 35.89069 | -93.35337 | 29761 ft | 397 kts | 286° |
| 2026-05-05 13:59 | 35.91432 | -93.45082 | 29803 ft | 396 kts | 286° |
| 2026-05-05 14:00 | 35.93803 | -93.54870 | 29800 ft | 396 kts | 286° |
| 2026-05-05 14:00 | 35.95374 | -93.61403 | 29800 ft | 395 kts | 286° |
| 2026-05-05 14:01 | 35.96934 | -93.67873 | 29796 ft | 395 kts | 286° |
| 2026-05-05 14:01 | 35.98502 | -93.74392 | 29792 ft | 395 kts | 286° |
| 2026-05-05 14:02 | 36.00044 | -93.80883 | 29792 ft | 396 kts | 286° |
| 2026-05-05 14:02 | 36.01604 | -93.87416 | 29790 ft | 396 kts | 286° |
| 2026-05-05 14:03 | 36.03149 | -93.93914 | 29792 ft | 396 kts | 286° |
| 2026-05-05 14:03 | 36.04703 | -94.00450 | 29791 ft | 396 kts | 286° |
| 2026-05-05 14:04 | 36.06253 | -94.07008 | 29781 ft | 396 kts | 286° |
| 2026-05-05 14:04 | 36.07789 | -94.13523 | 29773 ft | 395 kts | 286° |
| 2026-05-05 14:05 | 36.09321 | -94.20037 | 29771 ft | 396 kts | 286° |
| 2026-05-05 14:05 | 36.10862 | -94.26582 | 29778 ft | 395 kts | 286° |
| 2026-05-05 14:06 | 36.12382 | -94.33075 | 29784 ft | 395 kts | 285° |
| 2026-05-05 14:06 | 36.13911 | -94.39632 | 29779 ft | 396 kts | 286° |
| 2026-05-05 14:07 | 36.15427 | -94.46130 | 29778 ft | 394 kts | 285° |
| 2026-05-05 14:07 | 36.16932 | -94.52634 | 29769 ft | 394 kts | 285° |
| 2026-05-05 14:08 | 36.18438 | -94.59116 | 29767 ft | 393 kts | 285° |
| 2026-05-05 14:08 | 36.19944 | -94.65633 | 29768 ft | 392 kts | 285° |
| 2026-05-05 14:09 | 36.21439 | -94.72132 | 29769 ft | 393 kts | 285° |
| 2026-05-05 14:09 | 36.22924 | -94.78601 | 29768 ft | 391 kts | 285° |
| 2026-05-05 14:10 | 36.24413 | -94.85108 | 29757 ft | 391 kts | 285° |
| 2026-05-05 14:10 | 36.25885 | -94.91556 | 29756 ft | 390 kts | 284° |
| 2026-05-05 14:11 | 36.27363 | -94.98053 | 29762 ft | 390 kts | 284° |
| 2026-05-05 14:11 | 36.28824 | -95.04494 | 29750 ft | 389 kts | 284° |
| 2026-05-05 14:12 | 36.30291 | -95.10971 | 29748 ft | 390 kts | 284° |
| 2026-05-05 14:12 | 36.31746 | -95.17417 | 29755 ft | 390 kts | 284° |
| 2026-05-05 14:13 | 36.33207 | -95.23914 | 29750 ft | 389 kts | 284° |
| 2026-05-05 14:13 | 36.34653 | -95.30344 | 29733 ft | 389 kts | 284° |
| 2026-05-05 14:14 | 36.36106 | -95.36832 | 29729 ft | 389 kts | 284° |
| 2026-05-05 14:14 | 36.37549 | -95.43284 | 29723 ft | 389 kts | 284° |
| 2026-05-05 14:15 | 36.38982 | -95.49733 | 29719 ft | 389 kts | 284° |
| 2026-05-05 14:15 | 36.40426 | -95.56227 | 29720 ft | 389 kts | 284° |
| 2026-05-05 14:16 | 36.41861 | -95.62693 | 29729 ft | 389 kts | 283° |
| 2026-05-05 14:16 | 36.43299 | -95.69194 | 29731 ft | 389 kts | 283° |
| 2026-05-05 14:17 | 36.44717 | -95.75659 | 29737 ft | 389 kts | 284° |
| 2026-05-05 14:17 | 36.46141 | -95.82164 | 29754 ft | 389 kts | 284° |
| 2026-05-05 14:18 | 36.47567 | -95.88655 | 29744 ft | 389 kts | 284° |
| 2026-05-05 14:18 | 36.48980 | -95.95117 | 29754 ft | 388 kts | 284° |
| 2026-05-05 14:19 | 36.50396 | -96.01604 | 29760 ft | 388 kts | 283° |
| 2026-05-05 14:19 | 36.51806 | -96.08099 | 29771 ft | 388 kts | 283° |
| 2026-05-05 14:20 | 36.53203 | -96.14561 | 29773 ft | 388 kts | 283° |
| 2026-05-05 14:20 | 36.54604 | -96.21057 | 29772 ft | 388 kts | 283° |
| 2026-05-05 14:21 | 36.55999 | -96.27528 | 29775 ft | 389 kts | 283° |
| 2026-05-05 14:21 | 36.57393 | -96.34036 | 29769 ft | 388 kts | 283° |
| 2026-05-05 14:22 | 36.58774 | -96.40506 | 29767 ft | 388 kts | 283° |
| 2026-05-05 14:22 | 36.60165 | -96.47016 | 29772 ft | 388 kts | 283° |
| 2026-05-05 14:23 | 36.61539 | -96.53474 | 29768 ft | 387 kts | 283° |
| 2026-05-05 14:23 | 36.62919 | -96.59970 | 29770 ft | 387 kts | 283° |
| 2026-05-05 14:24 | 36.64289 | -96.66424 | 29777 ft | 387 kts | 283° |
| 2026-05-05 14:24 | 36.65657 | -96.72915 | 29778 ft | 387 kts | 283° |
| 2026-05-05 14:25 | 36.67026 | -96.79420 | 29779 ft | 387 kts | 283° |
| 2026-05-05 14:25 | 36.68379 | -96.85883 | 29780 ft | 387 kts | 283° |
| 2026-05-05 14:26 | 36.69734 | -96.92388 | 29786 ft | 387 kts | 283° |
| 2026-05-05 14:26 | 36.71084 | -96.98855 | 29794 ft | 387 kts | 282° |
| 2026-05-05 14:27 | 36.72436 | -97.05352 | 29802 ft | 387 kts | 282° |
| 2026-05-05 14:27 | 36.73780 | -97.11843 | 29801 ft | 387 kts | 282° |
| 2026-05-05 14:28 | 36.75219 | -97.18339 | 29803 ft | 388 kts | 284° |
| 2026-05-05 14:28 | 36.76811 | -97.24761 | 29808 ft | 388 kts | 285° |
| 2026-05-05 14:29 | 36.78394 | -97.31172 | 29818 ft | 388 kts | 284° |
| 2026-05-05 14:29 | 36.79986 | -97.37615 | 29823 ft | 387 kts | 284° |
| 2026-05-05 14:30 | 36.81548 | -97.44033 | 29821 ft | 388 kts | 284° |
| 2026-05-05 14:30 | 36.83123 | -97.50490 | 29817 ft | 388 kts | 284° |
| 2026-05-05 14:31 | 36.84691 | -97.56898 | 29820 ft | 388 kts | 284° |
| 2026-05-05 14:31 | 36.86260 | -97.63353 | 29821 ft | 388 kts | 284° |
| 2026-05-05 14:32 | 36.87832 | -97.69801 | 29823 ft | 388 kts | 284° |
| 2026-05-05 14:32 | 36.89393 | -97.76228 | 29819 ft | 387 kts | 284° |
| 2026-05-05 14:33 | 36.90962 | -97.82675 | 29821 ft | 387 kts | 284° |
| 2026-05-05 14:33 | 36.92524 | -97.89079 | 29830 ft | 387 kts | 284° |
| 2026-05-05 14:34 | 36.94080 | -97.95525 | 29833 ft | 387 kts | 284° |
| 2026-05-05 14:34 | 36.95631 | -98.01979 | 29834 ft | 386 kts | 284° |
| 2026-05-05 14:35 | 36.97166 | -98.08414 | 29827 ft | 387 kts | 283° |
| 2026-05-05 14:35 | 36.98707 | -98.14845 | 29834 ft | 387 kts | 283° |
| 2026-05-05 14:36 | 37.00247 | -98.21313 | 29828 ft | 387 kts | 284° |
| 2026-05-05 14:36 | 37.01780 | -98.27776 | 29835 ft | 386 kts | 283° |
| 2026-05-05 14:37 | 37.03302 | -98.34220 | 29841 ft | 386 kts | 283° |
| 2026-05-05 14:37 | 37.04817 | -98.40623 | 29846 ft | 386 kts | 283° |
| 2026-05-05 14:38 | 37.06331 | -98.47043 | 29850 ft | 386 kts | 283° |
| 2026-05-05 14:38 | 37.07597 | -98.52415 | 29849 ft | 385 kts | 283° |
| 2026-05-05 14:39 | 37.09108 | -98.58866 | 29855 ft | 386 kts | 283° |
| 2026-05-05 14:39 | 37.10625 | -98.65334 | 29860 ft | 386 kts | 283° |
| 2026-05-05 14:40 | 37.12130 | -98.71765 | 29864 ft | 385 kts | 283° |
| 2026-05-05 14:40 | 37.13635 | -98.78248 | 29870 ft | 386 kts | 283° |
| 2026-05-05 14:41 | 37.15125 | -98.84680 | 29871 ft | 386 kts | 283° |
| 2026-05-05 14:41 | 37.16621 | -98.91157 | 29870 ft | 386 kts | 283° |
| 2026-05-05 14:42 | 37.18106 | -98.97595 | 29870 ft | 385 kts | 283° |
| 2026-05-05 14:42 | 37.19590 | -99.04040 | 29877 ft | 385 kts | 283° |
| 2026-05-05 14:43 | 37.21071 | -99.10507 | 29881 ft | 385 kts | 283° |
| 2026-05-05 14:43 | 37.22550 | -99.16939 | 29876 ft | 385 kts | 283° |
| 2026-05-05 14:44 | 37.24030 | -99.23415 | 29893 ft | 385 kts | 283° |
| 2026-05-05 14:44 | 37.25500 | -99.29876 | 29908 ft | 385 kts | 283° |
| 2026-05-05 14:45 | 37.26961 | -99.36309 | 29908 ft | 384 kts | 283° |
| 2026-05-05 14:45 | 37.28422 | -99.42768 | 29915 ft | 384 kts | 282° |
| 2026-05-05 14:46 | 37.29869 | -99.49184 | 29918 ft | 384 kts | 283° |
| 2026-05-05 14:46 | 37.31322 | -99.55651 | 29925 ft | 383 kts | 283° |
| 2026-05-05 14:47 | 37.32763 | -99.62058 | 29930 ft | 382 kts | 282° |
| 2026-05-05 14:47 | 37.34203 | -99.68502 | 29929 ft | 382 kts | 282° |
| 2026-05-05 14:48 | 37.35636 | -99.74911 | 29931 ft | 382 kts | 282° |
| 2026-05-05 14:48 | 37.37061 | -99.81327 | 29945 ft | 382 kts | 282° |
| 2026-05-05 14:49 | 37.38484 | -99.87747 | 29961 ft | 381 kts | 282° |
| 2026-05-05 14:49 | 37.39910 | -99.94183 | 29961 ft | 381 kts | 282° |
| 2026-05-05 14:50 | 37.41332 | -100.00615 | 29960 ft | 381 kts | 282° |
| 2026-05-05 14:50 | 37.42734 | -100.07004 | 29960 ft | 380 kts | 282° |
| 2026-05-05 14:51 | 37.44138 | -100.13389 | 29961 ft | 380 kts | 282° |
| 2026-05-05 14:51 | 37.45542 | -100.19814 | 29960 ft | 380 kts | 282° |
| 2026-05-05 14:52 | 37.46936 | -100.26204 | 29961 ft | 380 kts | 282° |
| 2026-05-05 14:52 | 37.48335 | -100.32632 | 29960 ft | 380 kts | 282° |
| 2026-05-05 14:53 | 37.49738 | -100.39076 | 29960 ft | 380 kts | 282° |
| 2026-05-05 14:53 | 37.51121 | -100.45471 | 29960 ft | 380 kts | 282° |
| 2026-05-05 14:54 | 37.52505 | -100.51926 | 29962 ft | 380 kts | 282° |
| 2026-05-05 14:54 | 37.53883 | -100.58320 | 29963 ft | 380 kts | 282° |
| 2026-05-05 14:55 | 37.55270 | -100.64769 | 29969 ft | 379 kts | 282° |
| 2026-05-05 14:55 | 37.56637 | -100.71169 | 29969 ft | 380 kts | 282° |
| 2026-05-05 14:56 | 37.58010 | -100.77616 | 29978 ft | 380 kts | 281° |
| 2026-05-05 14:56 | 37.59379 | -100.84053 | 29980 ft | 380 kts | 281° |
| 2026-05-05 14:57 | 37.60736 | -100.90476 | 29986 ft | 380 kts | 281° |
| 2026-05-05 14:57 | 37.62103 | -100.96922 | 29997 ft | 380 kts | 281° |
| 2026-05-05 14:58 | 37.63456 | -101.03336 | 30000 ft | 379 kts | 281° |
| 2026-05-05 14:58 | 37.64810 | -101.09777 | 30001 ft | 379 kts | 281° |
| 2026-05-05 14:59 | 37.66158 | -101.16215 | 30010 ft | 379 kts | 281° |
| 2026-05-05 14:59 | 37.67494 | -101.22615 | 30009 ft | 379 kts | 281° |
| 2026-05-05 15:00 | 37.68615 | -101.27992 | 30012 ft | 379 kts | 281° |
| 2026-05-05 15:00 | 37.70159 | -101.35487 | 30003 ft | 379 kts | 280° |
| 2026-05-05 15:01 | 37.71470 | -101.41927 | 30012 ft | 379 kts | 280° |
| 2026-05-05 15:01 | 37.72796 | -101.48380 | 30015 ft | 379 kts | 280° |
| 2026-05-05 15:02 | 37.74130 | -101.54832 | 30006 ft | 378 kts | 280° |
| 2026-05-05 15:02 | 37.75452 | -101.61226 | 30007 ft | 378 kts | 281° |
| 2026-05-05 15:03 | 37.76792 | -101.67674 | 30014 ft | 378 kts | 280° |
| 2026-05-05 15:03 | 37.78105 | -101.74085 | 30016 ft | 378 kts | 280° |
| 2026-05-05 15:04 | 37.79418 | -101.80538 | 30023 ft | 377 kts | 280° |
| 2026-05-05 15:04 | 37.80722 | -101.86964 | 30014 ft | 377 kts | 280° |
| 2026-05-05 15:05 | 37.82659 | -101.96579 | 30027 ft | 377 kts | 280° |
| 2026-05-05 15:06 | 37.83955 | -102.03013 | 30027 ft | 377 kts | 280° |
| 2026-05-05 15:06 | 37.85246 | -102.09461 | 30028 ft | 377 kts | 280° |
| 2026-05-05 15:07 | 37.86524 | -102.15859 | 30036 ft | 377 kts | 279° |
| 2026-05-05 15:07 | 37.87803 | -102.22276 | 30030 ft | 377 kts | 279° |
| 2026-05-05 15:08 | 37.89086 | -102.28732 | 30029 ft | 377 kts | 279° |
| 2026-05-05 15:08 | 37.90359 | -102.35171 | 30029 ft | 377 kts | 279° |
| 2026-05-05 15:09 | 37.91630 | -102.41587 | 30039 ft | 377 kts | 279° |
| 2026-05-05 15:09 | 37.92903 | -102.48048 | 30036 ft | 377 kts | 279° |
| 2026-05-05 15:10 | 37.94173 | -102.54517 | 30039 ft | 379 kts | 279° |
| 2026-05-05 15:10 | 37.95433 | -102.60966 | 30048 ft | 379 kts | 279° |
| 2026-05-05 15:11 | 37.96699 | -102.67451 | 30052 ft | 379 kts | 279° |
| 2026-05-05 15:11 | 37.97958 | -102.73944 | 30055 ft | 378 kts | 279° |
| 2026-05-05 15:12 | 37.99213 | -102.80402 | 30049 ft | 379 kts | 279° |
| 2026-05-05 15:12 | 38.00470 | -102.86906 | 30054 ft | 380 kts | 279° |
| 2026-05-05 15:13 | 38.01716 | -102.93384 | 30050 ft | 377 kts | 278° |
| 2026-05-05 15:13 | 38.02945 | -102.99776 | 30039 ft | 374 kts | 277° |
| 2026-05-05 15:14 | 38.04169 | -103.06204 | 30041 ft | 374 kts | 278° |
| 2026-05-05 15:14 | 38.05389 | -103.12617 | 30036 ft | 375 kts | 277° |
| 2026-05-05 15:15 | 38.06617 | -103.19056 | 30037 ft | 375 kts | 277° |
| 2026-05-05 15:15 | 38.07828 | -103.25463 | 30036 ft | 374 kts | 277° |
| 2026-05-05 15:16 | 38.09034 | -103.31867 | 30030 ft | 375 kts | 277° |
| 2026-05-05 15:16 | 38.10258 | -103.38317 | 30031 ft | 376 kts | 277° |
| 2026-05-05 15:17 | 38.11450 | -103.44752 | 30026 ft | 376 kts | 277° |
| 2026-05-05 15:17 | 38.12655 | -103.51208 | 30028 ft | 375 kts | 276° |
| 2026-05-05 15:18 | 38.13863 | -103.57659 | 30030 ft | 376 kts | 277° |
| 2026-05-05 15:18 | 38.15069 | -103.64144 | 30025 ft | 376 kts | 277° |
| 2026-05-05 15:19 | 38.16267 | -103.70606 | 30029 ft | 376 kts | 277° |
| 2026-05-05 15:19 | 38.17461 | -103.77065 | 30031 ft | 375 kts | 277° |
| 2026-05-05 15:20 | 38.18638 | -103.83502 | 30028 ft | 375 kts | 277° |
| 2026-05-05 15:20 | 38.19818 | -103.89939 | 30034 ft | 375 kts | 277° |
| 2026-05-05 15:21 | 38.21011 | -103.96419 | 30024 ft | 376 kts | 277° |
| 2026-05-05 15:21 | 38.22190 | -104.02904 | 30018 ft | 376 kts | 277° |
| 2026-05-05 15:22 | 38.23366 | -104.09368 | 30022 ft | 377 kts | 277° |
| 2026-05-05 15:22 | 38.24545 | -104.15861 | 30018 ft | 376 kts | 276° |
| 2026-05-05 15:23 | 38.25704 | -104.22325 | 30016 ft | 377 kts | 277° |
| 2026-05-05 15:23 | 38.26878 | -104.28838 | 30018 ft | 377 kts | 276° |
| 2026-05-05 15:24 | 38.28042 | -104.35315 | 30021 ft | 378 kts | 276° |
| 2026-05-05 15:24 | 38.29203 | -104.41850 | 30030 ft | 378 kts | 275° |
| 2026-05-05 15:25 | 38.29816 | -104.48445 | 30020 ft | 375 kts | 270° |
| 2026-05-05 15:25 | 38.30275 | -104.55068 | 30020 ft | 375 kts | 270° |
| 2026-05-05 15:26 | 38.30732 | -104.61650 | 30019 ft | 376 kts | 270° |
| 2026-05-05 15:26 | 38.31117 | -104.67190 | 30019 ft | 376 kts | 270° |
| 2026-05-05 15:27 | 38.31579 | -104.73830 | 30020 ft | 377 kts | 270° |
| 2026-05-05 15:27 | 38.32118 | -104.81599 | 30021 ft | 378 kts | 270° |
| 2026-05-05 15:28 | 38.32496 | -104.87189 | 30015 ft | 379 kts | 270° |
| 2026-05-05 15:28 | 38.32945 | -104.93853 | 30017 ft | 380 kts | 269° |
| 2026-05-05 15:29 | 38.33398 | -105.00591 | 30011 ft | 380 kts | 269° |
| 2026-05-05 15:29 | 38.33846 | -105.07279 | 30020 ft | 381 kts | 270° |
| 2026-05-05 15:30 | 38.34359 | -105.15116 | 30029 ft | 382 kts | 269° |
| 2026-05-05 15:30 | 38.34729 | -105.20760 | 30014 ft | 382 kts | 269° |
| 2026-05-05 15:31 | 38.35164 | -105.27478 | 30008 ft | 382 kts | 269° |
| 2026-05-05 15:31 | 38.35602 | -105.34250 | 30033 ft | 383 kts | 269° |
| 2026-05-05 15:32 | 38.36030 | -105.40980 | 29984 ft | 382 kts | 269° |
| 2026-05-05 15:32 | 38.36455 | -105.47761 | 29998 ft | 382 kts | 269° |
| 2026-05-05 15:33 | 38.36870 | -105.54495 | 29993 ft | 382 kts | 269° |
| 2026-05-05 15:33 | 38.37292 | -105.61247 | 29991 ft | 381 kts | 269° |
| 2026-05-05 15:34 | 38.37708 | -105.68010 | 29983 ft | 383 kts | 268° |
| 2026-05-05 15:34 | 38.38118 | -105.74727 | 29992 ft | 382 kts | 268° |
| 2026-05-05 15:35 | 38.38522 | -105.81493 | 29964 ft | 381 kts | 268° |
| 2026-05-05 15:35 | 38.38914 | -105.88213 | 29977 ft | 379 kts | 268° |
| 2026-05-05 15:36 | 38.39313 | -105.94924 | 29944 ft | 378 kts | 268° |
| 2026-05-05 15:36 | 38.39705 | -106.01617 | 29971 ft | 381 kts | 268° |
| 2026-05-05 15:37 | 38.40095 | -106.08378 | 29961 ft | 381 kts | 267° |
| 2026-05-05 15:37 | 38.40481 | -106.15142 | 30026 ft | 382 kts | 268° |
| 2026-05-05 15:38 | 38.40864 | -106.21890 | 30062 ft | 383 kts | 268° |
| 2026-05-05 15:38 | 38.41231 | -106.28667 | 30111 ft | 384 kts | 268° |
| 2026-05-05 15:39 | 38.41623 | -106.35509 | 30145 ft | 385 kts | 268° |
| 2026-05-05 15:39 | 38.42000 | -106.42293 | 30162 ft | 385 kts | 268° |
| 2026-05-05 15:40 | 38.42352 | -106.49154 | 30143 ft | 389 kts | 268° |
| 2026-05-05 15:40 | 38.42717 | -106.56028 | 30124 ft | 389 kts | 268° |
| 2026-05-05 15:41 | 38.43077 | -106.62882 | 30088 ft | 390 kts | 268° |
| 2026-05-05 15:41 | 38.43453 | -106.69797 | 30051 ft | 390 kts | 268° |
| 2026-05-05 15:42 | 38.43805 | -106.76686 | 30033 ft | 393 kts | 268° |
| 2026-05-05 15:42 | 38.44159 | -106.83666 | 29998 ft | 393 kts | 268° |
| 2026-05-05 15:43 | 38.44517 | -106.90660 | 29987 ft | 395 kts | 268° |
| 2026-05-05 15:43 | 38.44861 | -106.97598 | 29990 ft | 394 kts | 268° |
| 2026-05-05 15:44 | 38.45175 | -107.04560 | 29983 ft | 393 kts | 266° |
| 2026-05-05 15:44 | 38.45225 | -107.11568 | 29995 ft | 394 kts | 266° |
| 2026-05-05 15:45 | 38.45276 | -107.18544 | 29985 ft | 395 kts | 266° |
| 2026-05-05 15:45 | 38.45317 | -107.25558 | 30013 ft | 394 kts | 265° |
| 2026-05-05 15:46 | 38.45340 | -107.32561 | 29994 ft | 396 kts | 265° |
| 2026-05-05 15:46 | 38.45358 | -107.39559 | 29988 ft | 391 kts | 265° |
| 2026-05-05 15:47 | 38.45368 | -107.46524 | 29961 ft | 395 kts | 265° |
| 2026-05-05 15:47 | 38.45380 | -107.53534 | 29973 ft | 393 kts | 265° |
| 2026-05-05 15:48 | 38.45393 | -107.60455 | 29955 ft | 394 kts | 265° |
| 2026-05-05 15:48 | 38.45395 | -107.67438 | 29943 ft | 390 kts | 265° |
| 2026-05-05 15:49 | 38.45377 | -107.74352 | 29953 ft | 392 kts | 265° |
| 2026-05-05 15:49 | 38.45381 | -107.81329 | 29948 ft | 391 kts | 264° |
| 2026-05-05 15:50 | 38.45381 | -107.88248 | 29942 ft | 393 kts | 265° |
| 2026-05-05 15:50 | 38.45374 | -107.95173 | 29933 ft | 390 kts | 264° |
| 2026-05-05 15:51 | 38.45352 | -108.02125 | 29940 ft | 390 kts | 265° |
| 2026-05-05 15:51 | 38.45328 | -108.09093 | 29938 ft | 394 kts | 264° |
| 2026-05-05 15:52 | 38.45311 | -108.16080 | 29953 ft | 393 kts | 264° |
| 2026-05-05 15:52 | 38.45288 | -108.23014 | 29954 ft | 392 kts | 264° |
| 2026-05-05 15:53 | 38.45265 | -108.29984 | 29947 ft | 394 kts | 264° |
| 2026-05-05 15:53 | 38.45229 | -108.36983 | 29938 ft | 395 kts | 265° |
| 2026-05-05 15:54 | 38.45185 | -108.44029 | 29935 ft | 397 kts | 265° |
| 2026-05-05 15:54 | 38.45151 | -108.51070 | 29928 ft | 398 kts | 265° |
| 2026-05-05 15:55 | 38.45098 | -108.58183 | 29960 ft | 401 kts | 265° |
| 2026-05-05 15:55 | 38.45032 | -108.65295 | 29972 ft | 401 kts | 265° |
| 2026-05-05 15:56 | 38.44956 | -108.72409 | 29976 ft | 406 kts | 265° |
| 2026-05-05 15:56 | 38.44866 | -108.79594 | 29969 ft | 404 kts | 265° |
| 2026-05-05 15:57 | 38.44766 | -108.86772 | 29976 ft | 406 kts | 265° |
| 2026-05-05 15:57 | 38.44687 | -108.93994 | 29952 ft | 409 kts | 265° |
| 2026-05-05 15:58 | 38.44595 | -109.01256 | 29928 ft | 408 kts | 265° |
| 2026-05-05 15:58 | 38.44505 | -109.08509 | 29945 ft | 409 kts | 265° |
| 2026-05-05 15:59 | 38.44393 | -109.15756 | 29945 ft | 411 kts | 265° |
| 2026-05-05 15:59 | 38.44291 | -109.23075 | 29935 ft | 412 kts | 265° |
| 2026-05-05 16:00 | 38.44177 | -109.30363 | 29946 ft | 413 kts | 265° |
| 2026-05-05 16:00 | 38.44048 | -109.37697 | 29929 ft | 413 kts | 265° |
| 2026-05-05 16:01 | 38.43930 | -109.45003 | 29929 ft | 413 kts | 265° |
| 2026-05-05 16:01 | 38.43792 | -109.52358 | 29917 ft | 414 kts | 265° |
| 2026-05-05 16:02 | 38.43654 | -109.59673 | 29898 ft | 416 kts | 264° |
| 2026-05-05 16:02 | 38.43515 | -109.67041 | 29890 ft | 414 kts | 265° |
| 2026-05-05 16:03 | 38.43383 | -109.74344 | 29904 ft | 414 kts | 265° |
| 2026-05-05 16:03 | 38.43240 | -109.81706 | 29880 ft | 412 kts | 264° |
| 2026-05-05 16:04 | 38.43090 | -109.88996 | 29897 ft | 415 kts | 264° |
| 2026-05-05 16:04 | 38.42937 | -109.96301 | 29886 ft | 412 kts | 264° |
| 2026-05-05 16:05 | 38.42771 | -110.03650 | 29889 ft | 414 kts | 264° |
| 2026-05-05 16:05 | 38.42598 | -110.11012 | 29889 ft | 414 kts | 264° |
| 2026-05-05 16:06 | 38.42437 | -110.18340 | 29902 ft | 416 kts | 264° |
| 2026-05-05 16:06 | 38.42259 | -110.25758 | 29908 ft | 416 kts | 264° |
| 2026-05-05 16:07 | 38.42077 | -110.33133 | 29902 ft | 418 kts | 265° |
| 2026-05-05 16:07 | 38.41887 | -110.40536 | 29904 ft | 419 kts | 264° |
| 2026-05-05 16:08 | 38.41703 | -110.48010 | 29912 ft | 421 kts | 265° |
| 2026-05-05 16:08 | 38.41515 | -110.55455 | 29910 ft | 422 kts | 265° |
| 2026-05-05 16:09 | 38.41298 | -110.62966 | 29910 ft | 424 kts | 265° |
| 2026-05-05 16:09 | 38.41090 | -110.70454 | 29910 ft | 425 kts | 265° |
| 2026-05-05 16:10 | 38.40880 | -110.78027 | 29911 ft | 427 kts | 265° |
| 2026-05-05 16:10 | 38.40662 | -110.85616 | 29910 ft | 429 kts | 265° |
| 2026-05-05 16:11 | 38.40440 | -110.93197 | 29910 ft | 431 kts | 265° |
| 2026-05-05 16:12 | 38.39969 | -111.08528 | 29919 ft | 434 kts | 265° |
| 2026-05-05 16:13 | 38.39356 | -111.27813 | 29927 ft | 437 kts | 265° |
| 2026-05-05 16:13 | 38.39099 | -111.35529 | 29931 ft | 438 kts | 265° |
| 2026-05-05 16:14 | 38.38568 | -111.51063 | 29943 ft | 439 kts | 265° |
| 2026-05-05 16:15 | 38.38079 | -111.65086 | 29943 ft | 441 kts | 265° |
| 2026-05-05 16:16 | 38.37508 | -111.80662 | 29938 ft | 440 kts | 264° |
| 2026-05-05 16:17 | 38.37058 | -111.92385 | 29942 ft | 441 kts | 264° |
| 2026-05-05 16:18 | 38.36610 | -112.04044 | 29945 ft | 441 kts | 264° |
| 2026-05-05 16:19 | 38.36143 | -112.15797 | 29947 ft | 443 kts | 264° |
| 2026-05-05 16:19 | 38.35657 | -112.27544 | 29961 ft | 444 kts | 264° |
| 2026-05-05 16:20 | 38.34994 | -112.43314 | 29961 ft | 446 kts | 264° |
| 2026-05-05 16:22 | 38.34134 | -112.63078 | 29952 ft | 449 kts | 265° |
| 2026-05-05 16:23 | 38.33423 | -112.78995 | 29949 ft | 452 kts | 265° |
| 2026-05-05 16:23 | 38.32875 | -112.90971 | 29941 ft | 453 kts | 265° |
| 2026-05-05 16:24 | 38.32496 | -112.99017 | 29940 ft | 455 kts | 265° |
| 2026-05-05 16:25 | 38.31905 | -113.11076 | 29940 ft | 457 kts | 265° |
| 2026-05-05 16:25 | 38.31311 | -113.23213 | 29940 ft | 458 kts | 265° |
| 2026-05-05 16:26 | 38.30498 | -113.39431 | 29945 ft | 460 kts | 265° |
| 2026-05-05 16:27 | 38.30101 | -113.47560 | 29946 ft | 460 kts | 264° |
| 2026-05-05 16:27 | 38.29689 | -113.55674 | 29952 ft | 461 kts | 264° |
| 2026-05-05 16:28 | 38.29259 | -113.63835 | 29949 ft | 461 kts | 264° |
| 2026-05-05 16:28 | 38.28830 | -113.71949 | 29950 ft | 461 kts | 264° |
| 2026-05-05 16:29 | 38.28387 | -113.80078 | 29952 ft | 462 kts | 264° |
| 2026-05-05 16:29 | 38.27939 | -113.88270 | 29952 ft | 462 kts | 264° |
| 2026-05-05 16:30 | 38.27491 | -113.96400 | 29949 ft | 462 kts | 264° |
| 2026-05-05 16:30 | 38.27034 | -114.04558 | 29950 ft | 462 kts | 264° |
| 2026-05-05 16:31 | 38.26572 | -114.12686 | 29951 ft | 463 kts | 264° |
| 2026-05-05 16:31 | 38.26105 | -114.20868 | 29959 ft | 463 kts | 264° |
| 2026-05-05 16:32 | 38.25630 | -114.29014 | 29959 ft | 463 kts | 264° |
| 2026-05-05 16:32 | 38.25160 | -114.37194 | 29956 ft | 464 kts | 265° |
| 2026-05-05 16:33 | 38.25279 | -114.41318 | 29955 ft | 466 kts | 276° |
| 2026-05-05 16:33 | 38.25793 | -114.45396 | 29960 ft | 467 kts | 278° |
| 2026-05-05 16:33 | 38.26969 | -114.53554 | 29959 ft | 468 kts | 279° |
| 2026-05-05 16:34 | 38.28127 | -114.61674 | 29961 ft | 469 kts | 279° |
| 2026-05-05 16:34 | 38.29284 | -114.69865 | 29958 ft | 469 kts | 279° |
| 2026-05-05 16:35 | 38.30413 | -114.78006 | 29960 ft | 470 kts | 279° |
| 2026-05-05 16:35 | 38.31544 | -114.86228 | 29960 ft | 470 kts | 279° |
| 2026-05-05 16:36 | 38.32658 | -114.94405 | 29961 ft | 471 kts | 279° |
| 2026-05-05 16:36 | 38.32985 | -115.02762 | 29968 ft | 472 kts | 270° |
| 2026-05-05 16:37 | 38.33048 | -115.11139 | 29968 ft | 473 kts | 270° |
| 2026-05-05 16:37 | 38.33109 | -115.19489 | 29969 ft | 473 kts | 271° |
| 2026-05-05 16:38 | 38.33167 | -115.27885 | 29962 ft | 474 kts | 271° |
| 2026-05-05 16:38 | 38.33037 | -115.36257 | 29966 ft | 475 kts | 266° |
| 2026-05-05 16:39 | 38.32729 | -115.44683 | 29981 ft | 475 kts | 269° |
| 2026-05-05 16:39 | 38.32723 | -115.53092 | 29981 ft | 474 kts | 270° |
| 2026-05-05 16:40 | 38.32933 | -115.61450 | 29978 ft | 474 kts | 275° |
| 2026-05-05 16:40 | 38.33265 | -115.69810 | 29980 ft | 474 kts | 272° |
| 2026-05-05 16:41 | 38.33337 | -115.78224 | 29979 ft | 475 kts | 270° |
| 2026-05-05 16:41 | 38.33352 | -115.86657 | 29980 ft | 475 kts | 270° |
| 2026-05-05 16:42 | 38.33362 | -115.95016 | 29981 ft | 475 kts | 270° |
| 2026-05-05 16:42 | 38.33360 | -116.03443 | 29984 ft | 475 kts | 270° |
| 2026-05-05 16:43 | 38.33357 | -116.11876 | 29987 ft | 476 kts | 270° |
| 2026-05-05 16:43 | 38.33350 | -116.20278 | 29990 ft | 477 kts | 270° |
| 2026-05-05 16:44 | 38.33313 | -116.28595 | 29988 ft | 477 kts | 270° |
| 2026-05-05 16:44 | 38.32716 | -116.37016 | 29992 ft | 479 kts | 259° |
| 2026-05-05 16:45 | 38.31150 | -116.45260 | 29989 ft | 481 kts | 252° |
| 2026-05-05 16:45 | 38.29211 | -116.53434 | 29989 ft | 482 kts | 256° |
| 2026-05-05 16:46 | 38.27697 | -116.61766 | 29990 ft | 483 kts | 259° |
| 2026-05-05 16:46 | 38.26274 | -116.70117 | 29990 ft | 485 kts | 259° |
| 2026-05-05 16:47 | 38.24822 | -116.78547 | 29992 ft | 488 kts | 259° |
| 2026-05-05 16:47 | 38.23362 | -116.86967 | 29988 ft | 490 kts | 259° |
| 2026-05-05 16:48 | 38.22211 | -116.95509 | 29989 ft | 490 kts | 266° |
| 2026-05-05 16:48 | 38.21137 | -117.04086 | 29989 ft | 494 kts | 261° |
| 2026-05-05 16:49 | 38.19676 | -117.12676 | 29991 ft | 497 kts | 260° |
| 2026-05-05 16:49 | 38.18115 | -117.21246 | 29987 ft | 500 kts | 260° |
| 2026-05-05 16:50 | 38.16582 | -117.29834 | 29989 ft | 502 kts | 261° |
| 2026-05-05 16:50 | 38.15041 | -117.38500 | 29989 ft | 503 kts | 261° |
| 2026-05-05 16:51 | 38.13480 | -117.47206 | 29989 ft | 506 kts | 261° |
| 2026-05-05 16:51 | 38.11910 | -117.55938 | 29990 ft | 507 kts | 261° |
| 2026-05-05 16:52 | 38.10333 | -117.64699 | 29990 ft | 508 kts | 261° |
| 2026-05-05 16:52 | 38.08751 | -117.73422 | 29988 ft | 509 kts | 261° |
| 2026-05-05 16:53 | 38.07149 | -117.82199 | 29998 ft | 511 kts | 261° |
| 2026-05-05 16:53 | 38.05546 | -117.90946 | 30006 ft | 511 kts | 261° |
| 2026-05-05 16:54 | 38.03936 | -117.99709 | 29993 ft | 512 kts | 261° |
| 2026-05-05 16:54 | 38.02310 | -118.08522 | 29994 ft | 511 kts | 261° |
| 2026-05-05 16:55 | 38.00687 | -118.17266 | 30001 ft | 511 kts | 261° |
| 2026-05-05 16:55 | 37.99055 | -118.26046 | 30009 ft | 512 kts | 261° |
| 2026-05-05 16:56 | 37.97411 | -118.34857 | 29998 ft | 511 kts | 261° |
| 2026-05-05 16:56 | 37.95767 | -118.43565 | 30007 ft | 511 kts | 261° |
| 2026-05-05 16:57 | 37.94122 | -118.52291 | 30011 ft | 511 kts | 261° |
| 2026-05-05 16:57 | 37.92479 | -118.61050 | 30021 ft | 509 kts | 261° |
| 2026-05-05 16:58 | 37.90822 | -118.69789 | 30021 ft | 509 kts | 261° |
| 2026-05-05 16:58 | 37.89311 | -118.78487 | 30026 ft | 506 kts | 266° |
| 2026-05-05 16:59 | 37.88311 | -118.87335 | 30034 ft | 507 kts | 266° |
| 2026-05-05 16:59 | 37.87306 | -118.96138 | 30043 ft | 507 kts | 266° |
| 2026-05-05 17:00 | 37.86290 | -119.04971 | 30043 ft | 507 kts | 266° |
| 2026-05-05 17:00 | 37.85267 | -119.13839 | 30046 ft | 508 kts | 266° |
| 2026-05-05 17:01 | 37.84239 | -119.22664 | 30039 ft | 509 kts | 266° |
| 2026-05-05 17:01 | 37.83204 | -119.31499 | 30026 ft | 510 kts | 266° |
| 2026-05-05 17:02 | 37.82162 | -119.40378 | 30026 ft | 511 kts | 266° |
| 2026-05-05 17:02 | 37.81284 | -119.47795 | 30029 ft | 513 kts | 267° |
| 2026-05-05 17:03 | 37.80224 | -119.56751 | 30038 ft | 514 kts | 267° |
| 2026-05-05 17:03 | 37.79150 | -119.65637 | 30047 ft | 514 kts | 266° |
| 2026-05-05 17:04 | 37.78071 | -119.74562 | 30014 ft | 506 kts | 266° |
| 2026-05-05 17:04 | 37.77011 | -119.83308 | 29810 ft | 502 kts | 267° |
| 2026-05-05 17:05 | 37.76474 | -119.87668 | 29596 ft | 500 kts | 267° |
| 2026-05-05 17:05 | 37.75943 | -119.91949 | 29357 ft | 498 kts | 267° |
| 2026-05-05 17:05 | 37.75405 | -119.96253 | 29094 ft | 495 kts | 266° |
| 2026-05-05 17:05 | 37.74879 | -120.00554 | 28846 ft | 492 kts | 267° |
| 2026-05-05 17:06 | 37.74355 | -120.04819 | 28580 ft | 489 kts | 266° |
| 2026-05-05 17:06 | 37.73833 | -120.09039 | 28312 ft | 487 kts | 266° |
| 2026-05-05 17:06 | 37.73313 | -120.13248 | 28053 ft | 484 kts | 266° |
| 2026-05-05 17:06 | 37.72794 | -120.17452 | 27797 ft | 482 kts | 266° |
| 2026-05-05 17:07 | 37.72273 | -120.21593 | 27546 ft | 480 kts | 266° |
| 2026-05-05 17:07 | 37.71751 | -120.25748 | 27280 ft | 477 kts | 266° |
| 2026-05-05 17:07 | 37.71230 | -120.29870 | 27081 ft | 475 kts | 266° |
| 2026-05-05 17:07 | 37.70714 | -120.33986 | 27043 ft | 473 kts | 266° |
| 2026-05-05 17:08 | 37.70192 | -120.38100 | 27040 ft | 473 kts | 266° |
| 2026-05-05 17:08 | 37.69681 | -120.42162 | 27028 ft | 461 kts | 267° |
| 2026-05-05 17:08 | 37.69221 | -120.46099 | 26826 ft | 456 kts | 267° |
| 2026-05-05 17:08 | 37.68772 | -120.50068 | 26470 ft | 453 kts | 267° |
| 2026-05-05 17:09 | 37.68325 | -120.53991 | 26080 ft | 449 kts | 267° |
| 2026-05-05 17:09 | 37.67870 | -120.57888 | 25676 ft | 446 kts | 267° |
| 2026-05-05 17:09 | 37.67418 | -120.61710 | 25289 ft | 442 kts | 266° |
| 2026-05-05 17:09 | 37.66963 | -120.65553 | 24882 ft | 438 kts | 266° |
| 2026-05-05 17:10 | 37.66519 | -120.69357 | 24478 ft | 434 kts | 266° |
| 2026-05-05 17:10 | 37.66079 | -120.73067 | 24086 ft | 430 kts | 266° |
| 2026-05-05 17:10 | 37.65638 | -120.76785 | 23681 ft | 427 kts | 266° |
| 2026-05-05 17:10 | 37.65192 | -120.80475 | 23281 ft | 423 kts | 266° |
| 2026-05-05 17:11 | 37.64751 | -120.84142 | 22861 ft | 417 kts | 266° |
| 2026-05-05 17:11 | 37.64318 | -120.87743 | 22370 ft | 411 kts | 266° |
| 2026-05-05 17:11 | 37.63895 | -120.91241 | 21847 ft | 407 kts | 265° |
| 2026-05-05 17:11 | 37.63486 | -120.94616 | 21322 ft | 403 kts | 265° |
| 2026-05-05 17:12 | 37.63058 | -120.98102 | 20765 ft | 400 kts | 265° |
| 2026-05-05 17:12 | 37.62602 | -121.01554 | 20215 ft | 397 kts | 264° |
| 2026-05-05 17:12 | 37.62137 | -121.04987 | 19661 ft | 393 kts | 264° |
| 2026-05-05 17:12 | 37.61682 | -121.08332 | 19109 ft | 390 kts | 264° |
| 2026-05-05 17:13 | 37.61229 | -121.11716 | 18552 ft | 386 kts | 264° |
| 2026-05-05 17:13 | 37.60782 | -121.15043 | 18003 ft | 383 kts | 263° |
| 2026-05-05 17:13 | 37.60336 | -121.18351 | 17452 ft | 380 kts | 263° |
| 2026-05-05 17:13 | 37.59902 | -121.21587 | 16907 ft | 377 kts | 263° |
| 2026-05-05 17:14 | 37.59466 | -121.24823 | 16357 ft | 374 kts | 263° |
| 2026-05-05 17:14 | 37.59058 | -121.28050 | 15806 ft | 370 kts | 265° |
| 2026-05-05 17:14 | 37.58689 | -121.31253 | 15294 ft | 367 kts | 265° |
| 2026-05-05 17:14 | 37.58326 | -121.34419 | 14807 ft | 362 kts | 265° |
| 2026-05-05 17:15 | 37.57969 | -121.37553 | 14327 ft | 358 kts | 265° |
| 2026-05-05 17:15 | 37.57614 | -121.40635 | 13839 ft | 353 kts | 265° |
| 2026-05-05 17:15 | 37.57265 | -121.43655 | 13357 ft | 348 kts | 265° |
| 2026-05-05 17:15 | 37.56917 | -121.46646 | 12862 ft | 341 kts | 265° |
| 2026-05-05 17:16 | 37.56573 | -121.49576 | 12387 ft | 334 kts | 265° |
| 2026-05-05 17:16 | 37.56239 | -121.52462 | 11907 ft | 328 kts | 265° |
| 2026-05-05 17:16 | 37.55917 | -121.55242 | 11435 ft | 321 kts | 265° |
| 2026-05-05 17:16 | 37.55593 | -121.58014 | 10953 ft | 315 kts | 265° |
| 2026-05-05 17:17 | 37.55274 | -121.60735 | 10475 ft | 310 kts | 264° |
| 2026-05-05 17:17 | 37.54875 | -121.63359 | 9996 ft | 306 kts | 257° |
| 2026-05-05 17:17 | 37.54284 | -121.65915 | 9524 ft | 300 kts | 255° |
| 2026-05-05 17:17 | 37.53680 | -121.68394 | 9152 ft | 292 kts | 255° |
| 2026-05-05 17:18 | 37.53102 | -121.70782 | 8828 ft | 283 kts | 255° |
| 2026-05-05 17:18 | 37.52532 | -121.73145 | 8511 ft | 274 kts | 255° |
| 2026-05-05 17:18 | 37.51992 | -121.75382 | 8210 ft | 266 kts | 254° |
| 2026-05-05 17:18 | 37.51462 | -121.77592 | 7908 ft | 261 kts | 254° |
| 2026-05-05 17:19 | 37.50944 | -121.79749 | 7595 ft | 255 kts | 254° |
| 2026-05-05 17:19 | 37.50431 | -121.81888 | 7301 ft | 253 kts | 254° |
| 2026-05-05 17:19 | 37.49921 | -121.84010 | 7034 ft | 250 kts | 254° |
| 2026-05-05 17:19 | 37.49430 | -121.86052 | 6966 ft | 241 kts | 254° |
| 2026-05-05 17:20 | 37.49094 | -121.88007 | 6964 ft | 240 kts | 268° |
| 2026-05-05 17:20 | 37.49153 | -121.90108 | 6981 ft | 239 kts | 275° |
| 2026-05-05 17:20 | 37.49294 | -121.92190 | 6917 ft | 234 kts | 276° |
| 2026-05-05 17:20 | 37.49425 | -121.94168 | 6692 ft | 226 kts | 275° |
| 2026-05-05 17:21 | 37.49550 | -121.96129 | 6424 ft | 221 kts | 275° |
| 2026-05-05 17:21 | 37.49669 | -121.98051 | 6121 ft | 218 kts | 275° |
| 2026-05-05 17:21 | 37.49779 | -121.99919 | 5800 ft | 214 kts | 275° |
| 2026-05-05 17:22 | 37.49988 | -122.03614 | 5144 ft | 209 kts | 275° |
| 2026-05-05 17:22 | 37.50095 | -122.05445 | 4814 ft | 208 kts | 275° |
| 2026-05-05 17:22 | 37.50198 | -122.07258 | 4489 ft | 206 kts | 275° |
| 2026-05-05 17:22 | 37.50303 | -122.09043 | 4156 ft | 202 kts | 278° |
| 2026-05-05 17:23 | 37.50680 | -122.10696 | 3828 ft | 197 kts | 295° |
| 2026-05-05 17:23 | 37.51302 | -122.12200 | 3555 ft | 192 kts | 300° |
| 2026-05-05 17:23 | 37.51972 | -122.13658 | 3274 ft | 191 kts | 300° |
| 2026-05-05 17:23 | 37.52631 | -122.15115 | 3026 ft | 191 kts | 299° |
| 2026-05-05 17:24 | 37.53293 | -122.16552 | 2977 ft | 183 kts | 299° |
| 2026-05-05 17:24 | 37.53884 | -122.17926 | 2978 ft | 180 kts | 298° |
| 2026-05-05 17:24 | 37.54451 | -122.19268 | 2872 ft | 167 kts | 298° |
| 2026-05-05 17:24 | 37.54991 | -122.20552 | 2682 ft | 165 kts | 297° |
| 2026-05-05 17:25 | 37.55527 | -122.21830 | 2469 ft | 164 kts | 297° |
| 2026-05-05 17:25 | 37.55882 | -122.22675 | 2327 ft | 164 kts | 297° |
| 2026-05-05 17:25 | 37.56587 | -122.24356 | 2064 ft | 160 kts | 297° |
| 2026-05-05 17:25 | 37.57092 | -122.25561 | 1863 ft | 151 kts | 297° |
| 2026-05-05 17:26 | 37.57579 | -122.26723 | 1671 ft | 149 kts | 296° |
| 2026-05-05 17:26 | 37.58061 | -122.27873 | 1448 ft | 148 kts | 296° |
| 2026-05-05 17:26 | 37.58542 | -122.29021 | 1256 ft | 147 kts | 296° |
| 2026-05-05 17:26 | 37.59015 | -122.30149 | 1044 ft | 142 kts | 297° |
| 2026-05-05 17:27 | 37.59466 | -122.31242 | 847 ft | 143 kts | 296° |
| 2026-05-05 17:27 | 37.59912 | -122.32359 | 681 ft | 142 kts | 297° |
| 2026-05-05 17:27 | 37.60392 | -122.33477 | 520 ft | 145 kts | 299° |
| 2026-05-05 17:27 | 37.60876 | -122.34584 | 284 ft | 145 kts | 297° |
| 2026-05-05 17:28 | 37.61354 | -122.35717 | 103 ft | 146 kts | 297° |
| 2026-05-05 17:28 | 37.61830 | -122.36829 | 35 ft | 136 kts | 298° |
| 2026-05-05 17:28 | 37.62228 | -122.37779 | 25 ft | 92 kts | 296° |
| 2026-05-05 17:28 | 37.62388 | -122.38176 | 26 ft | 24 kts | 298° |
| 2026-05-05 17:29 | 37.62469 | -122.38364 | 26 ft | 14 kts | 296° |
| 2026-05-05 17:29 | 37.62451 | -122.38477 | 26 ft | 16 kts | 212° |
| 2026-05-05 17:29 | 37.62382 | -122.38499 | 23 ft | 0 kts | 211° |
| 2026-05-05 17:30 | 37.62377 | -122.38502 | 23 ft | 6 kts | 210° |
| 2026-05-05 17:30 | 37.62286 | -122.38563 | 25 ft | 17 kts | 207° |
| 2026-05-05 17:31 | 37.62179 | -122.38629 | 24 ft | 16 kts | 199° |
| 2026-05-05 17:31 | 37.62101 | -122.38531 | 26 ft | 18 kts | 121° |
| 2026-05-05 17:31 | 37.62041 | -122.38381 | 27 ft | 20 kts | 115° |
| 2026-05-05 17:31 | 37.61977 | -122.38216 | 28 ft | 22 kts | 123° |
| 2026-05-05 17:32 | 37.61915 | -122.38082 | 27 ft | 10 kts | 117° |
| 2026-05-05 17:32 | 37.61875 | -122.37994 | 27 ft | 12 kts | 129° |
| 2026-05-05 17:32 | 37.61806 | -122.37950 | 25 ft | 4 kts | 174° |
| 2026-05-05 17:32 | 37.61774 | -122.37945 | 26 ft | 5 kts | 173° |
| 2026-05-05 17:33 | 37.61734 | -122.37938 | 24 ft | 7 kts | 173° |
| 2026-05-05 17:33 | 37.61683 | -122.37951 | 23 ft | 9 kts | 205° |
| 2026-05-05 17:33 | 37.61625 | -122.37991 | 22 ft | 10 kts | 206° |
| 2026-05-05 17:33 | 37.61556 | -122.38031 | 20 ft | 12 kts | 210° |
| 2026-05-05 17:34 | 37.61526 | -122.38120 | 20 ft | 7 kts | 258° |
| 2026-05-05 17:34 | 37.61518 | -122.38160 | 22 ft | 5 kts | 256° |
| 2026-05-05 17:34 | 37.61516 | -122.38168 | 20 ft | 1 kts | 259° |
| 2026-05-05 17:34 | 37.61512 | -122.38192 | 21 ft | 0 kts | 258° |